Time;durP1;ratioP1;P1;durP2;ratioP2;P2;SDS_P1;SDS_P2;PMS_P1;PMS_P2;Temp;Humidity;BMP_temperature;BMP_pressure;BME280_temperature;BME280_humidity;BME280_pressure;Samples;Min_cycle;Max_cycle;Signal;HPM_P1;HPM_P2
2024/03/26 00:05:33;;;;;;;37.80;27.20;;;;;;;-0.55;100.00;98583.34;449572;1239;139594;-50
2024/03/26 00:15:37;;;;;;;40.40;29.50;;;;;;;-0.61;100.00;98585.27;446130;1236;5197393;-48
2024/03/26 00:25:40;;;;;;;38.80;29.20;;;;;;;-0.75;100.00;98592.77;448976;1237;139848;-49
2024/03/26 00:35:44;;;;;;;44.10;32.70;;;;;;;-0.89;100.00;98588.61;447837;1238;139454;-48
2024/03/26 00:45:48;;;;;;;39.70;28.00;;;;;;;-1.04;100.00;98594.77;448777;1239;139859;-60
2024/03/26 00:55:53;;;;;;;40.20;29.50;;;;;;;-1.17;100.00;98600.15;447956;1238;139257;-48
2024/03/26 01:05:57;;;;;;;41.30;30.90;;;;;;;-1.33;100.00;98604.09;447371;1239;139645;-60
2024/03/26 01:16:00;;;;;;;42.80;31.30;;;;;;;-1.43;100.00;98626.70;447437;1239;140174;-47
2024/03/26 01:26:04;;;;;;;43.80;29.30;;;;;;;-1.26;100.00;98630.65;448336;1237;139353;-49
2024/03/26 01:36:08;;;;;;;49.00;32.40;;;;;;;-0.96;100.00;98634.88;448786;1239;139534;-56
2024/03/26 01:46:11;;;;;;;45.90;30.10;;;;;;;-0.66;100.00;98628.91;447484;1239;139181;-56
2024/03/26 01:56:17;;;;;;;45.40;32.00;;;;;;;-0.40;100.00;98629.92;448363;1237;139130;-60
2024/03/26 02:06:21;;;;;;;41.10;28.10;;;;;;;-0.14;100.00;98635.23;448070;1238;139830;-60
2024/03/26 02:16:24;;;;;;;45.80;27.20;;;;;;;0.11;100.00;98640.39;447816;1237;140288;-60
2024/03/26 02:26:28;;;;;;;30.70;24.00;;;;;;;0.29;100.00;98643.50;448046;1239;138940;-60
2024/03/26 02:36:31;;;;;;;40.80;23.20;;;;;;;0.40;100.00;98657.39;447822;1236;139403;-60
2024/03/26 02:46:34;;;;;;;39.90;24.70;;;;;;;0.49;100.00;98669.11;449466;1238;140077;-60
2024/03/26 02:56:38;;;;;;;36.40;21.00;;;;;;;0.55;100.00;98672.85;448668;1238;139564;-47
2024/03/26 03:06:41;;;;;;;32.40;18.40;;;;;;;0.62;100.00;98670.86;447747;1237;139118;-46
2024/03/26 03:16:44;;;;;;;29.40;14.90;;;;;;;0.61;100.00;98671.77;447734;1239;140400;-46
2024/03/26 03:26:48;;;;;;;24.20;14.90;;;;;;;0.56;100.00;98672.48;448571;1238;139458;-49
2024/03/26 03:36:52;;;;;;;27.80;14.50;;;;;;;0.50;100.00;98672.02;448283;1235;139045;-59
2024/03/26 03:46:55;;;;;;;25.70;13.60;;;;;;;0.39;100.00;98665.17;447750;1239;139072;-59
2024/03/26 03:56:58;;;;;;;28.80;12.60;;;;;;;0.16;100.00;98657.56;448023;1239;139666;-59
2024/03/26 04:07:01;;;;;;;30.80;11.60;;;;;;;-0.01;100.00;98656.45;448455;1238;139552;-59
2024/03/26 04:17:05;;;;;;;27.20;13.30;;;;;;;-0.09;100.00;98677.55;447730;1240;139752;-60
2024/03/26 04:27:09;;;;;;;27.50;13.00;;;;;;;-0.09;100.00;98688.93;448052;1239;139810;-49
2024/03/26 04:37:14;;;;;;;24.80;11.20;;;;;;;-0.09;100.00;98690.82;448433;1240;139178;-57
2024/03/26 04:47:17;;;;;;;18.10;10.80;;;;;;;-0.15;100.00;98692.23;447883;1238;139464;-59
2024/03/26 04:57:22;;;;;;;22.20;12.30;;;;;;;-0.23;100.00;98696.10;447653;1238;139723;-59
2024/03/26 05:07:25;;;;;;;26.90;10.20;;;;;;;-0.23;100.00;98693.52;447988;1238;139753;-60
2024/03/26 05:17:28;;;;;;;18.50;11.20;;;;;;;-0.24;100.00;98690.79;448360;1238;140273;-59
2024/03/26 05:27:32;;;;;;;24.60;13.70;;;;;;;-0.09;100.00;98693.04;448553;1240;139966;-60
2024/03/26 05:37:37;;;;;;;20.00;12.50;;;;;;;0.08;100.00;98700.02;447919;1240;139648;-61
2024/03/26 05:47:40;;;;;;;17.50;12.60;;;;;;;0.27;100.00;98705.71;448378;1240;139998;-47
2024/03/26 05:57:43;;;;;;;22.70;14.80;;;;;;;0.38;100.00;98701.52;448104;1239;139633;-50
2024/03/26 06:07:48;;;;;;;22.90;11.80;;;;;;;0.65;100.00;98702.96;448196;1241;139787;-48
2024/03/26 06:17:51;;;;;;;17.00;10.20;;;;;;;1.03;100.00;98706.00;447961;1239;139509;-48
2024/03/26 06:27:55;;;;;;;13.30;9.30;;;;;;;1.27;100.00;98720.59;448011;1239;139491;-58
2024/03/26 06:37:58;;;;;;;15.30;10.80;;;;;;;1.57;100.00;98726.13;447912;1235;138984;-57
2024/03/26 06:48:02;;;;;;;18.60;11.40;;;;;;;1.97;100.00;98730.52;448241;1241;139535;-52
2024/03/26 06:58:05;;;;;;;17.80;12.50;;;;;;;2.40;100.00;98721.74;449953;1238;139424;-49
2024/03/26 07:08:08;;;;;;;15.80;10.60;;;;;;;2.93;100.00;98726.83;448450;1239;139689;-60
2024/03/26 07:18:11;;;;;;;15.30;10.60;;;;;;;3.22;100.00;98719.94;448319;1240;139227;-57
2024/03/26 07:28:15;;;;;;;11.30;10.00;;;;;;;3.58;100.00;98718.54;448114;1238;140893;-60
2024/03/26 07:38:18;;;;;;;13.30;9.80;;;;;;;4.05;100.00;98716.41;449910;1235;139738;-55
2024/03/26 07:48:22;;;;;;;13.40;10.60;;;;;;;4.76;100.00;98702.99;448991;1235;138927;-61
2024/03/26 07:58:25;;;;;;;11.30;9.00;;;;;;;5.69;100.00;98715.90;448819;1238;139895;-59
2024/03/26 08:08:28;;;;;;;12.10;9.30;;;;;;;5.62;100.00;98724.11;448204;1238;139270;-61
2024/03/26 08:18:31;;;;;;;11.70;9.20;;;;;;;5.48;100.00;98713.13;448815;1238;139998;-63
2024/03/26 08:28:34;;;;;;;12.00;10.70;;;;;;;5.68;100.00;98718.79;448734;1238;139828;-57
2024/03/26 08:38:38;;;;;;;11.80;10.40;;;;;;;6.30;100.00;98714.11;448585;1238;140543;-49
2024/03/26 08:48:45;;;;;;;12.10;10.80;;;;;;;7.16;100.00;98705.44;448756;1238;140088;-57
2024/03/26 08:58:51;;;;;;;11.70;10.50;;;;;;;9.06;100.00;98693.93;448616;1238;139482;-54
2024/03/26 09:08:55;;;;;;;10.30;9.20;;;;;;;10.01;100.00;98686.00;448323;1235;139881;-58
2024/03/26 09:18:58;;;;;;;10.60;9.30;;;;;;;10.35;100.00;98664.19;449030;1238;139294;-65
2024/03/26 09:29:06;;;;;;;9.80;8.80;;;;;;;10.30;100.00;98651.29;450121;1235;140369;-65
2024/03/26 09:39:09;;;;;;;10.00;8.80;;;;;;;9.59;100.00;98638.84;449656;1238;139672;-58
2024/03/26 09:49:17;;;;;;;12.70;9.90;;;;;;;9.08;100.00;98626.98;449751;1238;139148;-59
2024/03/26 09:59:23;;;;;;;10.20;9.10;;;;;;;8.86;100.00;98612.89;449945;1238;139478;-61
2024/03/26 10:09:28;;;;;;;10.10;9.10;;;;;;;8.68;100.00;98606.84;448965;1237;139107;-60
2024/03/26 10:19:31;;;;;;;14.00;11.50;;;;;;;8.58;100.00;98599.67;449496;1238;139666;-59
2024/03/26 10:29:37;;;;;;;13.30;11.90;;;;;;;8.46;100.00;98587.45;448805;1238;139783;-56
2024/03/26 10:39:44;;;;;;;11.50;10.00;;;;;;;8.37;99.92;98584.40;448675;1235;139821;-60
2024/03/26 10:49:47;;;;;;;;;;;;;;;8.38;100.00;98575.91;449141;1238;139097;-60
2024/03/26 10:59:51;;;;;;;10.20;8.60;;;;;;;8.54;99.81;98572.55;448699;1237;125772;-61
2024/03/26 11:10:04;;;;;;;9.10;8.20;;;;;;;8.58;98.52;98559.02;448941;1235;139399;-61
2024/03/26 11:20:16;;;;;;;9.70;8.70;;;;;;;8.82;98.78;98549.30;449058;1238;140291;-59
2024/03/26 11:30:19;;;;;;;9.30;7.80;;;;;;;9.07;97.73;98536.84;449463;1236;139117;-52
2024/03/26 11:40:23;;;;;;;11.40;8.90;;;;;;;9.17;97.42;98519.11;448507;1238;140152;-51
2024/03/26 11:50:26;;;;;;;10.60;9.50;;;;;;;9.34;96.69;98505.80;449176;1238;138839;-62
2024/03/26 12:00:29;;;;;;;9.30;7.80;;;;;;;9.47;95.51;98491.36;449932;1238;139946;-61
2024/03/26 12:10:33;;;;;;;10.10;8.60;;;;;;;9.69;94.29;98488.25;445449;1235;5101692;-63
2024/03/26 12:20:37;;;;;;;6.40;5.80;;;;;;;9.85;92.19;98467.46;448664;1238;138980;-62
2024/03/26 12:30:40;;;;;;;5.70;5.10;;;;;;;10.05;89.47;98452.66;449514;1235;137819;-63
2024/03/26 12:40:43;;;;;;;5.80;4.90;;;;;;;10.26;87.13;98437.52;448570;1238;139223;-60
2024/03/26 12:50:46;;;;;;;5.60;4.90;;;;;;;10.35;85.78;98428.73;449056;1238;138606;-63
2024/03/26 13:00:49;;;;;;;4.90;4.00;;;;;;;10.45;83.28;98416.52;448699;1238;138704;-59
2024/03/26 13:10:53;;;;;;;7.10;4.90;;;;;;;10.64;82.60;98403.44;448261;1237;138712;-62
2024/03/26 13:20:56;;;;;;;5.30;4.80;;;;;;;10.79;82.06;98374.52;449497;1236;138963;-63
2024/03/26 13:31:00;;;;;;;6.10;4.80;;;;;;;10.88;80.76;98356.59;448528;1236;139207;-59
2024/03/26 13:41:04;;;;;;;5.40;4.00;;;;;;;10.91;79.56;98341.84;450059;1236;139120;-61
2024/03/26 13:51:08;;;;;;;4.90;4.40;;;;;;;10.90;77.78;98332.84;450334;1238;138560;-60
2024/03/26 14:01:12;;;;;;;6.20;3.90;;;;;;;11.00;77.47;98326.27;449566;1238;138721;-65
2024/03/26 14:11:15;;;;;;;4.90;3.20;;;;;;;11.09;77.02;98313.36;449901;1237;138672;-60
2024/03/26 14:21:18;;;;;;;4.60;3.10;;;;;;;11.19;76.02;98307.04;449675;1238;138752;-62
2024/03/26 14:31:23;;;;;;;4.20;2.90;;;;;;;11.31;75.33;98293.23;449391;1235;138233;-61
2024/03/26 14:41:26;;;;;;;2.30;2.10;;;;;;;11.44;73.90;98277.17;449466;1236;138332;-58
2024/03/26 14:51:29;;;;;;;4.20;2.20;;;;;;;11.50;72.75;98267.80;450192;1238;138764;-59
2024/03/26 15:01:32;;;;;;;2.80;2.60;;;;;;;11.49;72.15;98259.92;450030;1238;138889;-57
2024/03/26 15:11:36;;;;;;;3.20;2.30;;;;;;;11.54;72.31;98250.40;449559;1236;139162;-55
2024/03/26 15:21:39;;;;;;;2.50;2.30;;;;;;;11.58;71.86;98237.76;449350;1238;138685;-63
2024/03/26 15:32:01;;;;;;;3.30;2.60;;;;;;;11.52;71.09;98236.94;448372;1235;138316;-61
2024/03/26 15:42:05;;;;;;;2.70;2.40;;;;;;;11.40;70.02;98232.36;448133;1238;138508;-60
2024/03/26 15:52:08;;;;;;;2.70;2.20;;;;;;;11.35;64.64;98215.34;449477;1235;138419;-62
2024/03/26 16:02:12;;;;;;;2.30;1.80;;;;;;;11.25;63.82;98202.89;448239;1235;138470;-62
2024/03/26 16:12:21;;;;;;;2.90;2.30;;;;;;;11.13;63.34;98192.91;448823;1238;139115;-65
2024/03/26 16:22:25;;;;;;;3.20;2.40;;;;;;;10.95;63.02;98183.10;448638;1238;138823;-67
2024/03/26 16:32:29;;;;;;;2.20;2.00;;;;;;;10.72;63.16;98183.66;449298;1238;138669;-59
2024/03/26 16:42:33;;;;;;;2.20;1.60;;;;;;;10.47;63.09;98175.45;448296;1236;138162;-61
2024/03/26 16:52:38;;;;;;;3.90;2.40;;;;;;;10.19;63.11;98168.70;448759;1236;138692;-64
2024/03/26 17:02:42;;;;;;;3.40;3.10;;;;;;;9.90;62.96;98161.05;448746;1235;138146;-58
2024/03/26 17:12:45;;;;;;;4.80;2.90;;;;;;;9.61;63.10;98155.73;449241;1238;137908;-68
2024/03/26 17:22:48;;;;;;;6.00;2.70;;;;;;;9.33;63.23;98153.45;448193;1238;138207;-68
2024/03/26 17:32:55;;;;;;;3.60;2.90;;;;;;;9.11;63.30;98148.44;448625;1236;138684;-68
2024/03/26 17:42:59;;;;;;;4.10;3.30;;;;;;;8.88;63.81;98154.24;448467;1237;138594;-68
2024/03/26 17:53:02;;;;;;;6.50;4.90;;;;;;;8.66;64.50;98153.53;448502;1237;138466;-62
2024/03/26 18:03:07;;;;;;;5.50;4.20;;;;;;;8.45;65.10;98159.99;448848;1237;138509;-62
2024/03/26 18:13:11;;;;;;;7.50;5.50;;;;;;;8.31;65.67;98156.92;448575;1234;138031;-66
2024/03/26 18:23:14;;;;;;;7.80;3.80;;;;;;;8.16;65.92;98156.52;448486;1238;137998;-62
2024/03/26 18:33:18;;;;;;;5.40;4.00;;;;;;;8.04;66.04;98154.43;448636;1238;138018;-67
2024/03/26 18:43:22;;;;;;;5.40;3.40;;;;;;;7.98;66.23;98152.07;448198;1237;137762;-67
2024/03/26 18:53:25;;;;;;;5.10;3.60;;;;;;;7.90;66.04;98152.36;449428;1237;138979;-62
2024/03/26 19:03:32;;;;;;;4.80;4.10;;;;;;;7.89;66.22;98148.06;448921;1237;137973;-62
2024/03/26 19:13:39;;;;;;;6.60;4.60;;;;;;;7.83;66.33;98145.06;448577;1238;138175;-61
2024/03/26 19:23:42;;;;;;;7.00;4.90;;;;;;;7.71;66.55;98143.52;448350;1237;138429;-58
2024/03/26 19:33:47;;;;;;;6.10;4.80;;;;;;;7.61;66.77;98139.05;448937;1237;137955;-61
2024/03/26 19:43:51;;;;;;;8.30;6.00;;;;;;;7.49;67.25;98132.23;449033;1239;138477;-65
2024/03/26 19:53:54;;;;;;;10.50;5.30;;;;;;;7.37;67.76;98130.35;449698;1238;138071;-63
2024/03/26 20:03:59;;;;;;;8.20;4.30;;;;;;;7.26;67.90;98126.83;448390;1239;139002;-62
2024/03/26 20:14:04;;;;;;;8.20;5.10;;;;;;;7.20;68.40;98121.35;449359;1238;137927;-61
2024/03/26 20:24:08;;;;;;;5.90;4.30;;;;;;;7.11;68.80;98115.52;448965;1238;138500;-64
2024/03/26 20:34:12;;;;;;;9.00;4.50;;;;;;;7.04;69.09;98106.11;448834;1236;138419;-62
2024/03/26 20:44:17;;;;;;;8.30;4.90;;;;;;;6.97;69.46;98099.48;448298;1239;137019;-64
2024/03/26 20:54:20;;;;;;;8.10;4.70;;;;;;;6.91;69.97;98094.05;447901;1238;138060;-63
2024/03/26 21:04:24;;;;;;;8.30;4.90;;;;;;;6.84;70.33;98084.05;448306;1235;138454;-64
2024/03/26 21:14:28;;;;;;;5.90;4.30;;;;;;;6.80;70.91;98079.64;448863;1239;138016;-64
2024/03/26 21:24:31;;;;;;;4.60;4.20;;;;;;;6.75;71.22;98076.73;449447;1238;138071;-60
2024/03/26 21:34:37;;;;;;;7.10;4.70;;;;;;;6.68;71.52;98072.91;449562;1235;138367;-60
2024/03/26 21:44:40;;;;;;;6.60;4.30;;;;;;;6.61;71.89;98067.96;449356;1239;138878;-59
2024/03/26 21:54:46;;;;;;;9.30;5.50;;;;;;;6.52;72.31;98065.50;449611;1239;138356;-58
2024/03/26 22:04:50;;;;;;;7.00;4.90;;;;;;;6.41;72.48;98048.73;450058;1239;139160;-60
2024/03/26 22:14:53;;;;;;;7.20;4.50;;;;;;;6.30;73.01;98049.13;449600;1235;137844;-61
2024/03/26 22:24:57;;;;;;;7.60;5.20;;;;;;;6.17;73.46;98044.48;449353;1238;139121;-60
2024/03/26 22:35:01;;;;;;;7.00;5.40;;;;;;;6.03;73.73;98033.27;448953;1238;138484;-63
2024/03/26 22:45:06;;;;;;;8.00;5.90;;;;;;;5.89;74.07;98029.77;449151;1241;139317;-62
2024/03/26 22:55:10;;;;;;;8.70;5.50;;;;;;;5.74;74.48;98027.11;448635;1239;138632;-63
2024/03/26 23:05:14;;;;;;;7.90;5.50;;;;;;;5.61;74.87;98019.81;448089;1237;138747;-62
2024/03/26 23:15:17;;;;;;;6.70;4.80;;;;;;;5.50;75.23;98014.32;448905;1238;139674;-62
2024/03/26 23:25:21;;;;;;;6.00;4.70;;;;;;;5.41;75.42;98004.00;450252;1239;138602;-63
2024/03/26 23:35:24;;;;;;;7.80;5.30;;;;;;;5.34;75.60;97995.45;449762;1235;138573;-63
2024/03/26 23:45:28;;;;;;;6.80;5.00;;;;;;;5.26;75.80;97984.52;451006;1239;139092;-63
2024/03/26 23:55:31;;;;;;;6.50;4.20;;;;;;;5.11;75.94;97977.16;450287;1238;139255;-58
